KPIB/PIB METAR and TAF weather

Enter ICAO airport designator
Station Type Date Time Source
KPIB METAR 2019/08/19 06:56 UTC NOAA

KPIB 190656Z AUTO 00000KT 9SM CLR 23/23 A3001 RMK AO2 SLP160 T02330233


Station Type Date Time Source
KPIB Decoded METAR 2019/08/19 06:56 UTC NOAA

Station name not available
Aug 19, 2019 - 02:56 AM EDT / 2019.08.19 0656 UTC
Wind: Calm:0
Visibility: 9 mile(s):0
Sky conditions: clear
Temperature: 73.9 F (23.3 C)
Dew Point: 73.9 F (23.3 C)
Relative Humidity: 100%
Pressure (altimeter): 30.01 in. Hg (1016 hPa)
ob: KPIB 190656Z AUTO 00000KT 9SM CLR 23/23 A3001 RMK AO2 SLP160 T02330233
cycle: 7

Station Type Date Time Source
KPIB TAF 2019/08/19 06:54 UTC NOAA

TAF KPIB 190551Z 1906/2006 VRB03KT P6SM SCT100
FM190800 VRB03KT 6SM BR BKN004 BKN007
FM191500 27003KT P6SM BKN015
FM191700 23004KT P6SM -SHRA VCTS BKN050CB
FM192200 19004KT P6SM SCT100

Example: see airport list